Time;durP1;ratioP1;P1;durP2;ratioP2;P2;SDS_P1;SDS_P2;PMS_P1;PMS_P2;Temp;Humidity;BMP_temperature;BMP_pressure;BME280_temperature;BME280_humidity;BME280_pressure;Samples;Min_cycle;Max_cycle;Signal;HPM_P1;HPM_P2
2022/11/19 00:01:14;;;;;;;2.05;1.60;;;4.40;99.90;;;;;;4976096;28;20137;-65
2022/11/19 00:03:42;;;;;;;2.35;1.80;;;4.40;99.90;;;;;;4974563;28;20042;-66
2022/11/19 00:06:17;;;;;;;1.83;1.42;;;4.40;99.90;;;;;;4974936;28;20151;-66
2022/11/19 00:08:44;;;;;;;3.25;1.65;;;4.40;99.90;;;;;;4975431;28;20042;-66
2022/11/19 00:11:14;;;;;;;4.22;1.73;;;4.50;99.90;;;;;;4976357;28;20057;-66
2022/11/19 00:13:41;;;;;;;2.03;1.83;;;4.50;99.90;;;;;;4974658;28;20046;-66
2022/11/19 00:16:11;;;;;;;3.63;1.30;;;4.50;99.90;;;;;;4974569;28;21073;-66
2022/11/19 00:18:38;;;;;;;4.03;1.67;;;4.50;99.90;;;;;;4975631;28;20061;-66
2022/11/19 00:21:10;;;;;;;4.85;2.33;;;4.50;99.90;;;;;;4959137;28;20038;-66
2022/11/19 00:23:38;;;;;;;3.33;2.13;;;4.60;99.90;;;;;;4974410;28;20548;-66
2022/11/19 00:26:11;;;;;;;4.32;2.33;;;4.60;99.90;;;;;;4974845;28;20837;-66
2022/11/19 00:28:39;;;;;;;2.92;2.00;;;4.60;99.90;;;;;;4979351;28;20137;-66
2022/11/19 00:31:08;;;;;;;6.45;2.30;;;4.60;99.90;;;;;;4980408;28;20074;-65
2022/11/19 00:33:36;;;;;;;2.20;1.90;;;4.60;99.90;;;;;;4978409;28;20042;-67
2022/11/19 00:36:06;;;;;;;4.57;2.38;;;4.60;99.90;;;;;;4981094;28;20049;-66
2022/11/19 00:38:33;;;;;;;3.20;2.40;;;4.60;99.90;;;;;;4977644;28;20108;-66
2022/11/19 00:41:00;;;;;;;5.15;2.45;;;4.60;99.90;;;;;;4977161;28;20057;-65
2022/11/19 00:46:19;;;;;;;6.28;2.60;;;4.70;99.90;;;;;;4977372;28;20058;-66
2022/11/19 00:48:50;;;;;;;4.90;2.45;;;4.70;99.90;;;;;;4980069;28;20077;-65
2022/11/19 00:51:18;;;;;;;4.50;2.53;;;4.70;99.90;;;;;;4976200;28;20042;-66
2022/11/19 00:53:45;;;;;;;7.28;2.80;;;4.70;99.90;;;;;;4978521;28;20053;-66
2022/11/19 00:56:16;;;;;;;3.08;2.35;;;4.70;99.90;;;;;;4979060;28;20042;-66
2022/11/19 00:58:43;;;;;;;8.93;2.80;;;4.70;99.90;;;;;;4977503;28;20046;-66
2022/11/19 01:01:11;;;;;;;3.65;2.30;;;4.70;99.90;;;;;;4979005;28;20063;-66
2022/11/19 01:03:40;;;;;;;2.70;1.92;;;4.80;99.90;;;;;;4976576;28;20165;-65
2022/11/19 01:06:08;;;;;;;7.32;2.40;;;4.80;99.90;;;;;;4977366;28;20046;-65
2022/11/19 01:08:36;;;;;;;2.15;1.80;;;4.80;99.90;;;;;;4980565;28;20049;-63
2022/11/19 01:11:06;;;;;;;2.05;1.77;;;4.80;99.90;;;;;;4977931;28;20934;-65
2022/11/19 01:13:34;;;;;;;4.57;2.15;;;4.80;99.90;;;;;;4977681;28;20045;-65
2022/11/19 01:16:20;;;;;;;1.80;1.70;;;4.80;99.90;;;;;;4976829;28;20070;-65
2022/11/19 01:18:48;;;;;;;2.97;2.00;;;4.80;99.90;;;;;;4976126;28;20046;-64
2022/11/19 01:21:16;;;;;;;5.93;2.60;;;4.80;99.90;;;;;;4980166;28;20718;-65
2022/11/19 01:23:44;;;;;;;5.13;2.33;;;4.80;99.90;;;;;;4974598;28;20503;-64
2022/11/19 01:26:11;;;;;;;3.67;2.35;;;4.80;99.90;;;;;;4977886;28;20046;-66
2022/11/19 01:28:38;;;;;;;3.50;2.22;;;4.80;99.90;;;;;;4977753;28;20040;-65
2022/11/19 01:31:17;;;;;;;2.53;2.17;;;4.80;99.90;;;;;;4975939;28;20125;-64
2022/11/19 01:33:44;;;;;;;6.15;2.30;;;4.70;99.90;;;;;;4977151;28;20046;-66
2022/11/19 01:36:14;;;;;;;4.75;3.17;;;4.70;99.90;;;;;;4979331;28;20149;-66
2022/11/19 01:38:41;;;;;;;2.85;2.47;;;4.70;99.90;;;;;;4978856;28;20050;-65
2022/11/19 01:41:08;;;;;;;4.63;3.00;;;4.60;99.90;;;;;;4977613;28;20060;-65
2022/11/19 01:44:04;;;;;;;5.65;2.70;;;4.60;99.90;;;;;;4968259;28;20069;-66
2022/11/19 01:46:36;;;;;;;4.05;2.72;;;4.60;99.90;;;;;;4976750;28;20069;-65
2022/11/19 01:49:16;;;;;;;4.43;3.00;;;4.60;99.90;;;;;;4977474;28;20133;-65
2022/11/19 01:51:54;;;;;;;7.70;3.22;;;4.60;99.90;;;;;;4978581;28;20567;-65
2022/11/19 01:54:27;;;;;;;6.97;2.88;;;4.60;99.90;;;;;;4978349;28;20052;-66
2022/11/19 01:56:56;;;;;;;2.97;2.67;;;4.60;99.90;;;;;;4977064;28;20053;-66
2022/11/19 01:59:25;;;;;;;3.13;2.70;;;4.60;99.90;;;;;;4976582;28;20434;-64
2022/11/19 02:01:52;;;;;;;4.45;2.83;;;4.60;99.90;;;;;;4967277;28;20054;-67
2022/11/19 02:04:20;;;;;;;4.80;2.67;;;4.60;99.90;;;;;;4973991;28;20785;-66
2022/11/19 02:06:47;;;;;;;4.40;3.30;;;4.60;99.90;;;;;;4976850;28;20046;-67
2022/11/19 02:09:13;;;;;;;;;;;4.60;99.90;;;;;;4978335;28;20682;-66
2022/11/19 02:11:43;;;;;;;5.15;2.55;;;4.70;99.90;;;;;;4976096;28;19926;-65
2022/11/19 02:14:34;;;;;;;5.72;3.25;;;4.70;99.90;;;;;;4978115;28;20832;-66
2022/11/19 02:17:26;;;;;;;3.15;2.85;;;4.70;99.90;;;;;;4977422;28;20077;-67
2022/11/19 02:20:38;;;;;;;4.70;2.70;;;4.70;99.90;;;;;;4976332;28;20042;-67
2022/11/19 02:23:47;;;;;;;2.88;2.25;;;4.70;99.90;;;;;;4976818;28;20050;-66
2022/11/19 02:26:29;;;;;;;;;;;4.70;99.90;;;;;;4975689;28;20041;-66
2022/11/19 02:29:08;;;;;;;6.78;2.70;;;4.70;99.90;;;;;;4975517;28;19929;-66
2022/11/19 02:31:48;;;;;;;2.30;2.10;;;4.70;99.90;;;;;;4978362;28;20196;-66
2022/11/19 02:34:56;;;;;;;2.72;2.53;;;4.70;99.90;;;;;;4976125;28;20042;-65
2022/11/19 02:37:55;;;;;;;2.88;2.22;;;4.60;99.90;;;;;;4951568;28;20692;-65
2022/11/19 02:40:39;;;;;;;4.63;2.50;;;4.60;99.90;;;;;;4975945;28;20214;-65
2022/11/19 02:43:15;;;;;;;2.65;2.15;;;4.60;99.90;;;;;;4978017;28;20046;-65
2022/11/19 02:46:13;;;;;;;2.95;1.90;;;4.60;99.90;;;;;;4976350;28;20555;-66
2022/11/19 02:48:45;;;;;;;3.17;2.53;;;4.60;99.90;;;;;;4977390;28;20047;-64
2022/11/19 02:51:14;;;;;;;4.22;2.00;;;4.60;99.90;;;;;;4962228;28;20143;-64
2022/11/19 02:53:41;;;;;;;2.33;1.75;;;4.50;99.90;;;;;;4978446;28;20053;-65
2022/11/19 02:56:11;;;;;;;;;;;4.50;99.90;;;;;;4976682;28;20066;-65
2022/11/19 03:04:31;;;;;;;3.15;2.13;;;4.60;99.90;;;;;;4972008;28;20126;-65
2022/11/19 03:07:06;;;;;;;2.83;1.75;;;4.60;99.90;;;;;;4974299;28;20676;-65
2022/11/19 03:09:38;;;;;;;1.70;1.50;;;4.60;99.90;;;;;;4974002;28;20520;-65
2022/11/19 03:12:31;;;;;;;5.05;3.30;;;4.60;99.90;;;;;;4977502;28;20042;-65
2022/11/19 03:18:13;;;;;;;1.55;1.08;;;4.60;99.90;;;;;;4973181;28;20046;-65
2022/11/19 03:20:47;;;;;;;3.67;1.50;;;4.70;99.90;;;;;;4959738;28;20133;-65
2022/11/19 03:23:22;;;;;;;3.40;1.90;;;4.70;99.90;;;;;;4976844;28;20054;-65
2022/11/19 03:26:04;;;;;;;1.73;1.30;;;4.70;99.90;;;;;;4972235;28;20142;-64
2022/11/19 03:28:35;;;;;;;10.23;1.70;;;4.70;99.90;;;;;;4977223;28;20730;-65
2022/11/19 03:31:05;;;;;;;6.22;1.73;;;4.70;99.90;;;;;;4977196;28;20760;-65
2022/11/19 03:33:38;;;;;;;1.92;1.50;;;4.60;99.90;;;;;;4971631;28;20462;-65
2022/11/19 03:36:16;;;;;;;3.33;1.75;;;4.60;99.90;;;;;;4975006;28;20058;-65
2022/11/19 03:38:48;;;;;;;1.83;1.27;;;4.60;99.90;;;;;;4972997;28;20074;-65
2022/11/19 03:41:17;;;;;;;1.55;1.30;;;4.60;99.90;;;;;;4972281;28;20156;-65
2022/11/19 03:43:51;;;;;;;2.22;1.50;;;4.60;99.90;;;;;;4975728;28;20054;-65
2022/11/19 03:46:20;;;;;;;3.15;1.58;;;4.60;99.90;;;;;;4974450;28;20046;-65
2022/11/19 03:48:51;;;;;;;3.05;1.55;;;4.60;99.90;;;;;;4974899;28;20050;-65
2022/11/19 03:51:42;;;;;;;4.32;2.05;;;4.50;99.90;;;;;;4971409;28;20074;-65
2022/11/19 03:54:09;;;;;;;3.30;1.90;;;4.50;99.90;;;;;;4974714;28;20056;-65
2022/11/19 03:56:38;;;;;;;2.70;1.73;;;4.50;99.90;;;;;;4974721;28;20048;-64
2022/11/19 03:59:07;;;;;;;2.72;1.85;;;4.50;99.90;;;;;;4977377;28;20595;-64
2022/11/19 04:01:35;;;;;;;2.35;1.45;;;4.50;99.90;;;;;;4977882;28;20041;-64
2022/11/19 04:06:48;;;;;;;4.45;2.10;;;4.50;99.90;;;;;;4977653;28;20049;-65
2022/11/19 04:09:14;;;;;;;;;;;4.60;99.90;;;;;;4983349;28;20533;-65
2022/11/19 04:11:42;;;;;;;4.95;1.38;;;4.60;99.90;;;;;;4981880;28;20398;-65
2022/11/19 04:14:09;;;;;;;4.03;1.23;;;4.60;99.90;;;;;;4980758;28;20054;-65
2022/11/19 04:16:36;;;;;;;4.60;1.70;;;4.60;99.90;;;;;;4975881;28;20038;-65
2022/11/19 04:19:03;;;;;;;5.32;1.40;;;4.60;99.90;;;;;;4977554;28;20042;-65
2022/11/19 04:21:30;;;;;;;2.15;1.58;;;4.60;99.90;;;;;;4980069;28;20718;-65
2022/11/19 04:23:56;;;;;;;2.13;1.42;;;4.60;99.90;;;;;;4970133;28;20053;-65
2022/11/19 04:26:23;;;;;;;1.73;1.20;;;4.60;99.90;;;;;;4976384;28;20038;-66
2022/11/19 04:28:50;;;;;;;2.00;1.30;;;4.60;99.90;;;;;;4978929;28;20046;-66
2022/11/19 04:31:16;;;;;;;;;;;4.60;99.90;;;;;;4978721;28;20054;-64
2022/11/19 04:33:44;;;;;;;5.25;1.30;;;4.60;99.90;;;;;;4979893;28;19933;-65
2022/11/19 04:36:10;;;;;;;;;;;4.60;99.90;;;;;;4979993;28;20042;-66
2022/11/19 04:38:37;;;;;;;1.40;1.00;;;4.60;99.90;;;;;;4976551;28;20012;-66
2022/11/19 04:41:04;;;;;;;2.67;1.30;;;4.60;99.90;;;;;;4978949;28;20052;-65
2022/11/19 04:43:30;;;;;;;1.55;1.27;;;4.50;99.90;;;;;;4982009;28;20049;-65
2022/11/19 04:45:57;;;;;;;3.03;1.88;;;4.50;99.90;;;;;;4978056;28;20064;-65
2022/11/19 04:48:24;;;;;;;2.97;1.17;;;4.50;99.90;;;;;;4979078;28;20555;-66
2022/11/19 04:50:50;;;;;;;4.68;1.17;;;4.50;99.90;;;;;;4976255;28;20739;-66
2022/11/19 04:53:17;;;;;;;1.85;1.30;;;4.40;99.90;;;;;;4978716;28;20054;-65
2022/11/19 04:55:44;;;;;;;3.28;1.20;;;4.40;99.90;;;;;;4979144;28;20046;-64
2022/11/19 04:58:11;;;;;;;2.05;1.13;;;4.40;99.90;;;;;;4980635;28;20108;-65
2022/11/19 05:00:38;;;;;;;;;;;4.40;99.90;;;;;;4980822;28;20053;-66
2022/11/19 05:03:04;;;;;;;4.70;1.30;;;4.30;99.90;;;;;;4983461;28;20361;-65
2022/11/19 05:05:31;;;;;;;;;;;4.30;99.90;;;;;;4960260;28;20366;-64
2022/11/19 05:07:58;;;;;;;2.45;1.20;;;4.30;99.90;;;;;;4977624;28;19932;-65
2022/11/19 05:10:24;;;;;;;5.85;2.85;;;4.20;99.90;;;;;;4976595;28;20046;-65
2022/11/19 05:12:51;;;;;;;;;;;4.20;99.90;;;;;;4978525;28;20097;-65
2022/11/19 05:15:18;;;;;;;1.98;1.20;;;4.20;99.90;;;;;;4970471;28;19925;-64
2022/11/19 05:17:44;;;;;;;2.15;0.98;;;4.10;99.90;;;;;;4977048;28;20046;-65
2022/11/19 05:20:11;;;;;;;3.47;1.50;;;4.00;99.90;;;;;;4980707;28;20169;-65
2022/11/19 05:22:38;;;;;;;;;;;4.00;99.90;;;;;;4977296;28;20054;-65
2022/11/19 05:25:05;;;;;;;5.78;1.42;;;4.00;99.90;;;;;;4977488;28;20001;-65
2022/11/19 05:27:31;;;;;;;5.15;1.48;;;3.90;99.90;;;;;;4978211;28;20484;-65
2022/11/19 05:29:59;;;;;;;2.05;1.27;;;3.80;99.90;;;;;;4972453;28;20673;-65
2022/11/19 05:32:26;;;;;;;1.95;1.23;;;3.80;99.90;;;;;;4978638;28;20112;-65
2022/11/19 05:34:52;;;;;;;7.18;1.60;;;3.80;99.90;;;;;;4977511;28;20038;-65
2022/11/19 05:37:19;;;;;;;3.10;1.30;;;3.70;99.90;;;;;;4976500;28;20041;-65
2022/11/19 05:39:46;;;;;;;3.03;1.42;;;3.70;99.90;;;;;;4979797;28;20119;-65
2022/11/19 05:42:12;;;;;;;4.00;1.63;;;3.70;99.90;;;;;;4962696;28;20072;-65
2022/11/19 05:44:39;;;;;;;;;;;3.70;99.90;;;;;;4980167;28;20639;-65
2022/11/19 05:47:06;;;;;;;2.58;2.03;;;3.70;99.90;;;;;;4977644;28;19936;-65
2022/11/19 05:49:32;;;;;;;10.25;1.75;;;3.70;99.90;;;;;;4961198;28;20081;-65
2022/11/19 05:51:59;;;;;;;;;;;3.60;99.90;;;;;;4980105;28;20614;-65
2022/11/19 05:54:26;;;;;;;2.72;1.10;;;3.60;99.90;;;;;;4975624;28;19980;-65
2022/11/19 05:56:53;;;;;;;;;;;3.50;99.90;;;;;;4977334;28;20117;-65
2022/11/19 05:59:19;;;;;;;2.95;1.00;;;3.40;99.90;;;;;;4977710;28;20008;-65
2022/11/19 06:01:47;;;;;;;2.80;1.30;;;3.40;99.90;;;;;;4975839;28;20984;-54
2022/11/19 06:04:14;;;;;;;;;;;3.40;99.90;;;;;;4978352;28;20149;-52
2022/11/19 06:06:40;;;;;;;5.78;1.30;;;3.30;99.90;;;;;;4976235;28;19929;-52
2022/11/19 06:09:07;;;;;;;;;;;3.30;99.90;;;;;;4961461;28;20724;-53
2022/11/19 06:11:46;;;;;;;4.63;1.35;;;3.20;99.90;;;;;;4961985;28;19925;-53
2022/11/19 06:14:18;;;;;;;3.90;1.17;;;3.20;99.90;;;;;;4977427;28;20428;-49
2022/11/19 06:16:45;;;;;;;2.72;1.20;;;3.20;99.90;;;;;;4974637;28;20597;-57
2022/11/19 06:19:11;;;;;;;;;;;3.10;99.90;;;;;;4976837;28;20046;-53
2022/11/19 06:21:38;;;;;;;6.10;1.60;;;3.10;99.90;;;;;;4974538;28;19929;-54
2022/11/19 06:24:05;;;;;;;;;;;3.00;99.90;;;;;;4975449;28;20057;-53
2022/11/19 06:26:32;;;;;;;9.02;1.50;;;3.00;99.90;;;;;;4975519;28;19987;-55
2022/11/19 06:28:59;;;;;;;1.55;1.35;;;3.00;99.90;;;;;;4974269;28;20052;-52
2022/11/19 06:31:26;;;;;;;4.63;1.70;;;3.00;99.90;;;;;;4968404;28;20361;-50
2022/11/19 06:33:52;;;;;;;2.47;1.83;;;3.00;99.90;;;;;;4975818;28;20042;-52
2022/11/19 06:36:20;;;;;;;;;;;3.00;99.90;;;;;;4976427;28;20038;-54
2022/11/19 06:38:47;;;;;;;3.60;1.83;;;2.90;99.90;;;;;;4977758;28;19930;-53
2022/11/19 06:41:14;;;;;;;2.17;1.70;;;2.90;99.90;;;;;;4967215;28;21062;-52
2022/11/19 06:43:42;;;;;;;;;;;2.90;99.90;;;;;;4968546;28;20050;-53
2022/11/19 06:46:12;;;;;;;3.83;1.85;;;2.90;99.90;;;;;;4972667;28;19925;-53
2022/11/19 06:48:39;;;;;;;2.55;1.70;;;2.90;99.90;;;;;;4976258;28;20046;-54
2022/11/19 06:51:07;;;;;;;13.10;2.42;;;2.80;99.90;;;;;;4975206;28;20042;-53
2022/11/19 06:53:33;;;;;;;2.70;2.08;;;2.90;99.90;;;;;;4974432;28;20608;-53
2022/11/19 06:56:05;;;;;;;3.53;1.77;;;2.80;99.90;;;;;;4976160;28;20045;-52
2022/11/19 06:58:32;;;;;;;1.40;1.30;;;2.90;99.90;;;;;;4974641;28;20088;-53
2022/11/19 07:00:59;;;;;;;4.85;2.10;;;3.00;99.90;;;;;;4974739;28;20049;-51
2022/11/19 07:03:26;;;;;;;7.50;2.17;;;3.00;99.90;;;;;;4977217;28;20524;-52
2022/11/19 07:05:54;;;;;;;;;;;3.00;99.90;;;;;;4967610;28;20054;-54
2022/11/19 07:08:21;;;;;;;3.00;1.73;;;3.10;99.90;;;;;;4975273;28;19951;-57
2022/11/19 07:10:48;;;;;;;2.28;1.73;;;3.20;99.90;;;;;;4971823;28;20082;-52
2022/11/19 07:13:14;;;;;;;4.80;2.05;;;3.40;99.90;;;;;;4976144;28;20043;-53
2022/11/19 07:15:42;;;;;;;7.78;3.30;;;3.60;99.90;;;;;;4972923;28;20051;-54
2022/11/19 07:18:09;;;;;;;3.75;2.42;;;3.90;99.90;;;;;;4976079;28;20467;-54
2022/11/19 07:20:36;;;;;;;3.22;2.38;;;4.20;99.90;;;;;;4978109;28;20050;-53
2022/11/19 07:23:03;;;;;;;2.58;1.95;;;4.60;99.90;;;;;;4976859;28;20052;-54
2022/11/19 07:25:29;;;;;;;;;;;5.00;99.90;;;;;;4953361;28;20061;-52
2022/11/19 07:27:56;;;;;;;4.43;2.00;;;5.30;99.90;;;;;;4975695;28;19972;-55
2022/11/19 07:30:23;;;;;;;3.22;1.90;;;5.60;99.90;;;;;;4975092;28;20246;-55
2022/11/19 07:32:51;;;;;;;;;;;5.90;99.90;;;;;;4973883;28;20131;-55
2022/11/19 07:35:18;;;;;;;2.03;1.85;;;6.20;99.90;;;;;;4973358;28;19930;-55
2022/11/19 07:37:45;;;;;;;5.97;3.20;;;6.60;99.90;;;;;;4971752;28;20113;-52
2022/11/19 07:40:13;;;;;;;3.78;2.00;;;7.00;99.90;;;;;;4977273;28;20055;-54
2022/11/19 07:42:50;;;;;;;6.13;1.92;;;7.20;99.90;;;;;;4973555;28;20038;-51
2022/11/19 07:45:19;;;;;;;4.78;1.85;;;7.50;99.90;;;;;;4959034;28;20194;-51
2022/11/19 07:47:47;;;;;;;3.05;1.85;;;7.80;99.90;;;;;;4975068;28;20050;-53
2022/11/19 07:50:16;;;;;;;5.57;2.85;;;8.10;99.90;;;;;;4975120;28;20049;-54
2022/11/19 07:52:42;;;;;;;3.60;1.73;;;8.30;99.90;;;;;;4977227;28;20149;-52
2022/11/19 07:55:09;;;;;;;;;;;8.60;99.90;;;;;;4976317;28;20046;-53
2022/11/19 07:57:36;;;;;;;2.10;1.48;;;8.60;99.90;;;;;;4975699;28;19932;-50
2022/11/19 08:00:04;;;;;;;4.38;1.60;;;8.40;99.90;;;;;;4976073;28;20072;-53
2022/11/19 08:02:38;;;;;;;2.65;1.67;;;8.30;99.90;;;;;;4973511;28;20050;-51
2022/11/19 08:05:04;;;;;;;;;;;8.20;99.90;;;;;;4973906;28;20054;-54
2022/11/19 08:07:31;;;;;;;2.88;2.00;;;8.20;99.90;;;;;;4975769;28;19932;-53
2022/11/19 08:09:58;;;;;;;7.55;3.05;;;8.20;99.90;;;;;;4974923;28;20272;-53
2022/11/19 08:12:25;;;;;;;2.40;1.83;;;8.50;99.90;;;;;;4976012;28;20049;-52
2022/11/19 08:14:51;;;;;;;6.35;2.05;;;8.70;99.90;;;;;;4975910;28;20089;-52
2022/11/19 08:20:04;;;;;;;5.70;2.45;;;9.30;99.90;;;;;;4975940;28;20113;-53
2022/11/19 08:22:30;;;;;;;3.78;2.28;;;9.60;99.90;;;;;;4975980;28;20046;-54
2022/11/19 08:24:57;;;;;;;;;;;9.80;99.90;;;;;;4976196;28;20081;-53
2022/11/19 08:27:24;;;;;;;5.60;3.08;;;9.90;99.90;;;;;;4953554;28;20029;-52
2022/11/19 08:29:51;;;;;;;3.25;2.72;;;10.00;99.90;;;;;;4973931;28;20046;-53
2022/11/19 08:32:17;;;;;;;2.92;2.20;;;10.00;99.90;;;;;;4973648;28;20504;-56
2022/11/19 08:34:44;;;;;;;4.20;2.50;;;10.00;99.90;;;;;;4974659;28;20125;-52
2022/11/19 08:37:12;;;;;;;3.42;2.25;;;9.90;99.90;;;;;;4958064;28;20046;-52
2022/11/19 08:39:39;;;;;;;2.75;2.22;;;9.80;99.90;;;;;;4974032;28;20046;-53
2022/11/19 08:44:54;;;;;;;3.63;2.42;;;9.60;99.90;;;;;;4955637;28;20152;-52
2022/11/19 08:47:21;;;;;;;5.63;2.80;;;9.50;99.90;;;;;;4957415;28;20100;-50
2022/11/19 08:49:47;;;;;;;7.13;2.25;;;9.40;99.90;;;;;;4980582;28;20108;-50
2022/11/19 08:52:14;;;;;;;;;;;9.40;99.90;;;;;;4978262;28;20042;-52
2022/11/19 08:54:41;;;;;;;5.10;2.00;;;9.40;99.90;;;;;;4976442;28;19926;-53
2022/11/19 08:57:08;;;;;;;;;;;9.40;99.90;;;;;;4977060;28;20055;-50
2022/11/19 08:59:34;;;;;;;7.97;2.53;;;9.50;99.90;;;;;;4976224;28;20558;-54
2022/11/19 09:02:01;;;;;;;;;;;9.60;99.90;;;;;;4978938;28;20041;-52
2022/11/19 09:04:28;;;;;;;4.05;2.30;;;9.60;99.90;;;;;;4974242;28;19921;-52
2022/11/19 09:06:54;;;;;;;3.45;2.22;;;9.60;99.90;;;;;;4978324;28;20046;-52
2022/11/19 09:09:21;;;;;;;3.67;2.67;;;9.50;99.90;;;;;;4977299;28;20050;-54
2022/11/19 09:11:48;;;;;;;;;;;9.40;99.90;;;;;;4978453;28;20050;-52
2022/11/19 09:14:15;;;;;;;5.40;2.22;;;9.30;99.90;;;;;;4965725;28;19925;-55
2022/11/19 09:16:42;;;;;;;3.97;1.52;;;9.20;99.90;;;;;;4975967;28;20050;-54
2022/11/19 09:19:08;;;;;;;4.93;1.45;;;9.20;99.90;;;;;;4978118;28;20042;-54
2022/11/19 09:21:35;;;;;;;;;;;9.20;99.90;;;;;;4979852;28;20159;-52
2022/11/19 09:24:02;;;;;;;3.35;1.20;;;9.10;99.90;;;;;;4977115;28;19925;-56
2022/11/19 09:26:29;;;;;;;1.50;1.35;;;8.90;99.90;;;;;;4978312;28;20917;-53
2022/11/19 09:28:55;;;;;;;4.93;1.88;;;8.80;99.90;;;;;;4977320;28;20053;-52
2022/11/19 09:31:22;;;;;;;3.55;1.67;;;8.70;99.90;;;;;;4974349;28;20222;-54
2022/11/19 09:33:50;;;;;;;;;;;8.60;99.90;;;;;;4977814;28;20125;-51
2022/11/19 09:36:18;;;;;;;1.67;1.58;;;8.50;99.90;;;;;;4977481;28;19969;-53
2022/11/19 09:38:46;;;;;;;2.55;1.35;;;8.40;99.90;;;;;;4976534;28;20049;-55
2022/11/19 09:41:12;;;;;;;2.00;1.08;;;8.30;99.90;;;;;;4974466;28;20046;-50
2022/11/19 09:44:01;;;;;;;2.38;1.38;;;8.30;99.90;;;;;;4957829;28;20139;-52
2022/11/19 09:46:36;;;;;;;1.30;1.00;;;8.20;99.90;;;;;;4978407;28;20124;-51
2022/11/19 09:49:09;;;;;;;3.00;1.33;;;8.20;99.90;;;;;;4976759;28;20624;-52
2022/11/19 09:51:41;;;;;;;2.80;1.00;;;8.20;99.90;;;;;;4977602;28;20077;-51
2022/11/19 09:54:17;;;;;;;2.50;1.13;;;8.40;99.90;;;;;;4977182;28;20952;-50
2022/11/19 09:56:46;;;;;;;1.50;1.20;;;8.60;99.90;;;;;;4976926;28;20065;-54
2022/11/19 09:59:24;;;;;;;1.40;0.90;;;8.60;99.90;;;;;;4976755;28;20046;-50
2022/11/19 10:01:52;;;;;;;1.70;1.20;;;8.60;99.90;;;;;;4974911;28;20042;-50
2022/11/19 10:04:22;;;;;;;1.80;0.82;;;8.80;99.90;;;;;;4965278;28;20058;-51
2022/11/19 10:07:15;;;;;;;2.00;0.95;;;8.90;99.90;;;;;;4971835;28;20050;-51
2022/11/19 10:09:48;;;;;;;1.70;0.77;;;8.80;99.90;;;;;;4976993;28;20684;-53
2022/11/19 10:12:46;;;;;;;1.48;1.38;;;8.80;99.90;;;;;;4978436;28;20056;-53
2022/11/19 10:15:24;;;;;;;3.20;1.55;;;9.00;99.90;;;;;;4978445;28;20057;-53
2022/11/19 10:18:18;;;;;;;7.55;1.55;;;9.30;99.90;;;;;;4976248;28;20077;-56
2022/11/19 10:20:53;;;;;;;2.60;1.70;;;9.60;99.90;;;;;;4976658;28;20105;-54
2022/11/19 10:23:35;;;;;;;2.53;1.45;;;9.80;99.90;;;;;;4976530;28;20698;-54
2022/11/19 10:26:08;;;;;;;5.60;2.05;;;9.80;99.90;;;;;;4975428;28;20712;-53
2022/11/19 10:28:37;;;;;;;3.83;1.50;;;9.80;99.90;;;;;;4976794;28;20088;-53
2022/11/19 10:31:12;;;;;;;2.45;1.48;;;9.80;99.90;;;;;;4959320;28;20623;-54
2022/11/19 10:33:49;;;;;;;1.85;1.65;;;9.60;99.90;;;;;;4977192;28;20309;-55
2022/11/19 10:36:41;;;;;;;2.83;2.00;;;9.50;99.90;;;;;;4976421;28;20078;-53
2022/11/19 10:39:17;;;;;;;3.10;2.05;;;9.30;99.90;;;;;;4976193;28;20052;-50
2022/11/19 10:41:48;;;;;;;3.03;2.53;;;9.00;99.90;;;;;;4966367;28;20541;-50
2022/11/19 10:44:39;;;;;;;4.70;2.55;;;8.90;99.90;;;;;;4976972;28;20046;-51
2022/11/19 10:47:19;;;;;;;3.17;2.58;;;8.80;99.90;;;;;;4976847;28;20062;-49
2022/11/19 10:49:52;;;;;;;6.03;2.45;;;8.60;99.90;;;;;;4978777;28;20220;-55
2022/11/19 10:53:00;;;;;;;5.05;2.45;;;8.40;99.90;;;;;;4974015;28;20499;-50
2022/11/19 10:55:38;;;;;;;4.68;2.15;;;8.30;99.90;;;;;;4869202;29;20277;-52
2022/11/19 10:58:33;;;;;;;4.72;2.83;;;8.20;99.90;;;;;;4867589;29;20049;-53
2022/11/19 11:01:02;;;;;;;2.30;2.05;;;8.20;99.90;;;;;;4949267;28;20141;-50
2022/11/19 11:03:40;;;;;;;5.20;1.80;;;8.20;99.90;;;;;;4974451;28;20347;-52
2022/11/19 11:06:08;;;;;;;2.15;1.95;;;8.10;99.90;;;;;;4977548;28;20416;-52
2022/11/19 11:08:55;;;;;;;2.72;1.88;;;8.10;99.90;;;;;;4977274;28;20093;-53
2022/11/19 11:14:50;;;;;;;3.70;2.40;;;8.00;99.90;;;;;;4954786;28;20788;-52
2022/11/19 11:17:21;;;;;;;2.00;1.80;;;7.90;99.90;;;;;;4975189;28;20909;-52
2022/11/19 11:20:02;;;;;;;4.38;2.03;;;7.80;99.90;;;;;;4975963;28;20154;-53
2022/11/19 11:22:30;;;;;;;2.75;1.95;;;7.70;99.90;;;;;;4972191;28;20042;-53
2022/11/19 11:24:58;;;;;;;3.35;1.42;;;7.60;99.90;;;;;;4976171;28;20050;-52
2022/11/19 11:27:34;;;;;;;3.60;1.23;;;7.60;99.90;;;;;;4974894;28;20042;-53
2022/11/19 11:30:13;;;;;;;1.90;1.38;;;7.60;99.90;;;;;;4975294;28;20173;-53
2022/11/19 11:32:40;;;;;;;6.25;1.30;;;7.50;99.90;;;;;;4973839;28;20145;-56
2022/11/19 11:35:37;;;;;;;2.50;1.25;;;7.50;99.90;;;;;;4974342;28;20507;-51
2022/11/19 11:38:04;;;;;;;2.42;1.17;;;7.40;99.90;;;;;;4966676;28;20142;-53
2022/11/19 11:40:31;;;;;;;5.45;1.48;;;7.50;99.90;;;;;;4977295;28;20046;-53
2022/11/19 11:42:58;;;;;;;;;;;7.40;99.90;;;;;;4964565;28;20108;-51
2022/11/19 11:45:31;;;;;;;3.95;2.33;;;7.40;99.90;;;;;;4974871;28;19960;-56
2022/11/19 11:48:05;;;;;;;6.03;2.42;;;7.40;99.90;;;;;;4974696;28;20046;-53
2022/11/19 11:50:34;;;;;;;2.10;1.48;;;7.40;99.90;;;;;;4957551;28;20050;-60
2022/11/19 11:53:07;;;;;;;3.70;1.42;;;7.40;99.90;;;;;;4973862;28;20050;-52
2022/11/19 11:55:34;;;;;;;1.10;1.00;;;7.50;99.90;;;;;;4977805;28;20041;-54
2022/11/19 11:58:04;;;;;;;2.05;1.23;;;7.60;99.90;;;;;;4976238;28;20042;-53
2022/11/19 12:00:41;;;;;;;3.25;1.10;;;7.70;99.90;;;;;;4978450;28;20435;-55
2022/11/19 12:03:09;;;;;;;;;;;7.80;99.90;;;;;;4977783;28;20105;-53
2022/11/19 12:05:53;;;;;;;1.15;1.00;;;7.80;99.90;;;;;;4984373;28;19925;-53
2022/11/19 12:08:32;;;;;;;5.03;1.13;;;7.90;99.90;;;;;;4988206;28;20046;-54
2022/11/19 12:11:10;;;;;;;1.25;0.82;;;8.00;99.90;;;;;;4984238;28;20058;-53
2022/11/19 12:13:50;;;;;;;3.83;1.00;;;8.10;99.90;;;;;;4987458;28;20096;-53
2022/11/19 12:16:36;;;;;;;1.10;0.70;;;8.30;99.90;;;;;;4986424;28;20050;-55
2022/11/19 12:19:12;;;;;;;5.28;1.00;;;8.50;99.90;;;;;;4987140;28;20750;-55
2022/11/19 12:21:58;;;;;;;1.20;0.68;;;8.70;99.90;;;;;;4983819;28;20141;-56
2022/11/19 12:24:59;;;;;;;2.88;0.80;;;8.90;99.90;;;;;;4989408;28;20042;-55
2022/11/19 12:27:39;;;;;;;1.23;1.02;;;8.90;99.90;;;;;;4989051;28;20049;-55
2022/11/19 12:30:27;;;;;;;1.20;0.93;;;8.90;99.90;;;;;;4991204;28;20095;-54
2022/11/19 12:33:21;;;;;;;2.93;1.20;;;8.80;99.90;;;;;;4990113;28;20145;-56
2022/11/19 12:36:10;;;;;;;2.50;1.25;;;8.80;99.90;;;;;;4988239;28;20505;-55
2022/11/19 12:39:05;;;;;;;2.30;0.73;;;8.80;99.90;;;;;;4993385;28;20697;-53
2022/11/19 12:41:50;;;;;;;4.47;1.77;;;8.70;99.90;;;;;;4985399;28;20052;-56
2022/11/19 12:44:45;;;;;;;0.70;0.70;;;8.70;99.90;;;;;;4988792;28;20045;-55
2022/11/19 12:47:21;;;;;;;2.28;0.82;;;8.70;99.90;;;;;;4991516;28;20043;-55
2022/11/19 12:49:55;;;;;;;0.63;0.63;;;8.60;99.90;;;;;;4991105;28;20068;-55
2022/11/19 12:52:37;;;;;;;0.95;0.70;;;8.60;99.90;;;;;;4988796;28;20283;-59
2022/11/19 12:56:07;;;;;;;5.05;0.60;;;8.60;99.90;;;;;;4986358;28;20046;-55
2022/11/19 12:59:07;;;;;;;2.58;0.50;;;8.60;99.90;;;;;;4897477;29;20050;-55
2022/11/19 13:01:40;;;;;;;1.33;0.75;;;8.60;99.90;;;;;;4989009;28;20052;-53
2022/11/19 13:04:26;;;;;;;3.22;0.65;;;8.60;99.90;;;;;;4986580;28;20124;-55
2022/11/19 13:07:09;;;;;;;1.40;0.80;;;8.70;99.90;;;;;;4990234;28;20116;-54
2022/11/19 13:09:53;;;;;;;0.88;0.73;;;8.70;99.90;;;;;;4993228;28;20134;-55
2022/11/19 13:12:25;;;;;;;1.58;1.45;;;8.70;99.90;;;;;;4989159;28;20081;-55
2022/11/19 13:15:08;;;;;;;6.90;0.88;;;8.80;99.90;;;;;;4989093;28;20050;-54
2022/11/19 13:17:43;;;;;;;1.95;1.10;;;9.00;99.90;;;;;;4990679;28;20096;-53
2022/11/19 13:20:22;;;;;;;1.92;0.80;;;9.40;99.90;;;;;;4990450;28;20134;-53
2022/11/19 13:22:52;;;;;;;1.85;0.98;;;9.80;99.90;;;;;;4988983;28;20046;-50
2022/11/19 13:25:30;;;;;;;2.00;1.80;;;10.30;99.90;;;;;;4985998;28;20038;-50
2022/11/19 13:28:00;;;;;;;2.92;1.27;;;10.50;99.90;;;;;;4988171;28;20049;-51
2022/11/19 13:30:30;;;;;;;2.30;1.08;;;10.50;99.90;;;;;;4989331;28;20042;-53
2022/11/19 13:33:29;;;;;;;3.63;1.15;;;10.40;99.90;;;;;;4986742;28;20177;-53
2022/11/19 13:36:18;;;;;;;1.05;0.95;;;10.20;99.90;;;;;;4986621;28;20601;-50
2022/11/19 13:38:55;;;;;;;1.10;0.90;;;9.90;99.90;;;;;;4988739;28;20042;-49
2022/11/19 13:41:30;;;;;;;;;;;9.60;99.90;;;;;;4988677;28;20034;-51
2022/11/19 13:46:57;;;;;;;0.70;0.60;;;9.10;99.90;;;;;;4988834;28;20049;-53
2022/11/19 13:49:36;;;;;;;3.35;0.75;;;8.80;99.90;;;;;;4987758;28;20077;-52
2022/11/19 13:52:12;;;;;;;3.05;1.13;;;8.70;99.90;;;;;;4987763;28;20529;-53
2022/11/19 13:54:40;;;;;;;2.13;0.77;;;8.80;99.90;;;;;;4987137;28;20038;-53
2022/11/19 13:57:21;;;;;;;2.33;0.90;;;8.90;99.90;;;;;;4990132;28;20053;-53
2022/11/19 13:59:48;;;;;;;2.00;0.88;;;9.00;99.90;;;;;;4988108;28;20569;-56